Time;durP1;ratioP1;P1;durP2;ratioP2;P2;SDS_P1;SDS_P2;PMS_P1;PMS_P2;Temp;Humidity;BMP_temperature;BMP_pressure;BME280_temperature;BME280_humidity;BME280_pressure;Samples;Min_cycle;Max_cycle;Signal;HPM_P1;HPM_P2
2023/12/21 00:00:50;;;;;;;5.72;2.75;;;;;;;2.32;100.00;100385.16;5020697;28;20033;-67
2023/12/21 00:03:17;;;;;;;6.78;2.20;;;;;;;2.38;100.00;100377.94;5029429;28;20108;-67
2023/12/21 00:05:43;;;;;;;5.95;2.00;;;;;;;2.37;100.00;100376.31;5028646;28;20033;-67
2023/12/21 00:08:08;;;;;;;6.13;2.42;;;;;;;2.37;100.00;100366.84;5030806;28;20067;-67
2023/12/21 00:10:33;;;;;;;5.60;1.45;;;;;;;2.33;100.00;100358.53;5022349;28;20036;-67
2023/12/21 00:12:59;;;;;;;5.95;2.50;;;;;;;2.30;100.00;100355.31;5027763;28;20037;-67
2023/12/21 00:15:24;;;;;;;3.53;1.50;;;;;;;2.19;100.00;100358.53;5026316;28;20037;-67
2023/12/21 00:17:50;;;;;;;8.73;2.33;;;;;;;2.13;100.00;100364.03;5030247;28;20036;-67
2023/12/21 00:20:16;;;;;;;4.10;1.25;;;;;;;2.02;100.00;100366.44;5022565;28;20073;-67
2023/12/21 00:22:41;;;;;;;6.45;2.10;;;;;;;2.01;100.00;100369.91;5022711;28;20171;-67
2023/12/21 00:25:07;;;;;;;5.78;1.83;;;;;;;1.99;100.00;100369.19;5026083;28;20503;-67
2023/12/21 00:27:32;;;;;;;4.65;1.45;;;;;;;1.94;100.00;100376.34;5030917;28;20056;-67
2023/12/21 00:29:58;;;;;;;5.60;1.42;;;;;;;1.84;100.00;100385.53;5028678;28;20512;-67
2023/12/21 00:32:23;;;;;;;6.00;2.50;;;;;;;1.79;100.00;100390.94;5026161;28;20030;-67
2023/12/21 00:34:49;;;;;;;2.53;1.23;;;;;;;1.75;100.00;100386.06;5024515;28;20033;-67
2023/12/21 00:37:15;;;;;;;5.85;2.47;;;;;;;1.69;100.00;100378.72;5029498;28;20500;-67
2023/12/21 00:39:41;;;;;;;7.28;1.90;;;;;;;1.69;100.00;100384.69;5023721;28;20025;-67
2023/12/21 00:42:06;;;;;;;7.22;2.30;;;;;;;1.70;100.00;100383.78;5025869;28;20553;-67
2023/12/21 00:44:32;;;;;;;4.40;1.73;;;;;;;1.64;100.00;100384.97;5029057;28;20063;-67
2023/12/21 00:46:57;;;;;;;4.20;1.77;;;;;;;1.60;100.00;100380.09;5024389;28;20112;-67
2023/12/21 00:49:23;;;;;;;6.55;2.40;;;;;;;1.56;100.00;100388.88;5026851;28;20053;-67
2023/12/21 00:51:48;;;;;;;7.72;2.35;;;;;;;1.59;100.00;100384.41;5026689;28;20549;-67
2023/12/21 00:54:13;;;;;;;5.68;2.33;;;;;;;1.61;100.00;100386.88;5029698;28;20083;-67
2023/12/21 00:56:39;;;;;;;7.10;2.42;;;;;;;1.65;100.00;100378.09;5025968;28;20025;-67
2023/12/21 00:59:04;;;;;;;7.50;1.77;;;;;;;1.64;100.00;100377.25;5029397;28;20075;-67
2023/12/21 01:01:30;;;;;;;7.53;2.75;;;;;;;1.64;100.00;100366.97;5035349;28;20055;-67
2023/12/21 01:03:55;;;;;;;5.85;1.90;;;;;;;1.65;100.00;100368.63;5028845;28;20075;-67
2023/12/21 01:06:21;;;;;;;4.13;1.50;;;;;;;1.63;100.00;100370.47;5027486;28;20427;-67
2023/12/21 01:08:46;;;;;;;4.45;1.73;;;;;;;1.62;100.00;100376.53;5027395;28;20059;-67
2023/12/21 01:11:12;;;;;;;3.20;1.05;;;;;;;1.61;100.00;100374.88;5020596;28;20570;-67
2023/12/21 01:13:38;;;;;;;5.22;1.95;;;;;;;1.58;100.00;100369.91;5027296;28;20040;-67
2023/12/21 01:16:04;;;;;;;5.18;1.77;;;;;;;1.70;100.00;100376.06;5026398;28;20026;-67
2023/12/21 01:18:29;;;;;;;6.53;2.10;;;;;;;1.73;100.00;100372.50;5025098;28;20033;-67
2023/12/21 01:20:54;;;;;;;6.45;2.15;;;;;;;1.64;100.00;100364.41;5026177;28;20042;-67
2023/12/21 01:23:20;;;;;;;3.80;1.40;;;;;;;1.62;100.00;100353.41;5028351;28;20116;-67
2023/12/21 01:25:46;;;;;;;5.97;1.58;;;;;;;1.59;100.00;100353.59;5028768;28;20419;-67
2023/12/21 01:28:11;;;;;;;6.25;2.30;;;;;;;1.61;100.00;100358.63;5025725;28;20049;-67
2023/12/21 01:30:37;;;;;;;5.07;2.42;;;;;;;1.64;100.00;100358.44;5024984;28;20034;-67
2023/12/21 01:33:02;;;;;;;5.45;1.98;;;;;;;1.62;100.00;100358.53;5025664;28;20512;-67
2023/12/21 01:35:28;;;;;;;8.30;1.92;;;;;;;1.54;100.00;100371.00;5023791;28;20050;-67
2023/12/21 01:37:53;;;;;;;3.70;1.67;;;;;;;1.47;100.00;100364.56;5022758;28;20048;-67
2023/12/21 01:40:19;;;;;;;3.83;1.83;;;;;;;1.43;100.00;100364.81;5024888;28;20037;-67
2023/12/21 01:42:44;;;;;;;6.15;1.58;;;;;;;1.43;100.00;100370.78;5028804;28;20026;-67
2023/12/21 01:45:10;;;;;;;5.97;2.78;;;;;;;1.40;100.00;100376.13;5025013;28;20240;-66
2023/12/21 01:47:36;;;;;;;6.18;2.10;;;;;;;1.36;100.00;100376.41;5027029;28;20029;-66
2023/12/21 01:50:02;;;;;;;3.35;1.98;;;;;;;1.29;100.00;100370.78;5026608;28;20417;-67
2023/12/21 01:52:28;;;;;;;5.15;2.22;;;;;;;1.28;100.00;100372.53;5025257;28;20223;-66
2023/12/21 01:54:55;;;;;;;7.72;1.85;;;;;;;1.32;100.00;100383.44;5025893;28;20121;-66
2023/12/21 01:57:21;;;;;;;5.93;2.22;;;;;;;1.33;100.00;100388.50;5032853;28;20423;-67
2023/12/21 01:59:47;;;;;;;4.28;1.73;;;;;;;1.35;100.00;100375.56;5032399;28;20030;-66
2023/12/21 02:02:12;;;;;;;3.20;1.70;;;;;;;1.31;100.00;100369.78;5027394;28;20028;-66
2023/12/21 02:04:38;;;;;;;3.38;1.65;;;;;;;1.34;100.00;100371.34;5026984;28;20147;-66
2023/12/21 02:07:04;;;;;;;7.38;2.00;;;;;;;1.36;100.00;100366.94;5027058;28;20112;-66
2023/12/21 02:09:29;;;;;;;5.00;1.75;;;;;;;1.31;100.00;100363.81;5026810;28;20114;-66
2023/12/21 02:11:55;;;;;;;6.32;1.83;;;;;;;1.32;100.00;100360.34;5028301;28;20373;-66
2023/12/21 02:14:21;;;;;;;4.38;1.40;;;;;;;1.33;100.00;100346.59;5027555;28;20056;-66
2023/12/21 02:16:59;;;;;;;4.53;1.30;;;;;;;1.40;100.00;100347.88;5025663;28;20026;-66
2023/12/21 02:19:25;;;;;;;3.45;1.83;;;;;;;1.49;100.00;100347.31;5017192;28;20095;-66
2023/12/21 02:21:54;;;;;;;5.13;2.00;;;;;;;1.70;100.00;100345.25;5017506;28;20025;-66
2023/12/21 02:24:20;;;;;;;2.75;1.42;;;;;;;1.75;100.00;100344.97;5017945;28;20064;-66
2023/12/21 02:26:45;;;;;;;2.88;1.23;;;;;;;1.75;100.00;100348.38;5024997;28;20029;-66
2023/12/21 02:29:11;;;;;;;4.25;1.35;;;;;;;1.74;100.00;100345.91;5029004;28;20492;-66
2023/12/21 02:31:37;;;;;;;3.25;1.35;;;;;;;1.77;100.00;100336.25;5025931;28;20036;-66
2023/12/21 02:34:05;;;;;;;2.90;1.40;;;;;;;1.80;100.00;100337.81;5029221;28;20030;-66
2023/12/21 02:36:31;;;;;;;4.07;1.58;;;;;;;1.78;100.00;100337.09;5018951;28;20056;-66
2023/12/21 02:38:56;;;;;;;2.22;1.08;;;;;;;1.85;100.00;100333.25;5024438;28;20071;-66
2023/12/21 02:41:21;;;;;;;5.15;1.10;;;;;;;1.88;100.00;100339.03;5018319;28;20069;-66
2023/12/21 02:43:47;;;;;;;3.47;1.42;;;;;;;2.72;100.00;100330.38;5023509;28;20041;-66
2023/12/21 02:46:12;;;;;;;4.03;1.73;;;;;;;2.84;100.00;100337.31;5027184;28;20087;-66
2023/12/21 02:48:38;;;;;;;4.22;1.67;;;;;;;2.70;100.00;100322.78;5025715;28;20033;-66
2023/12/21 02:51:03;;;;;;;6.90;2.03;;;;;;;3.77;95.33;100305.38;5025962;28;20033;-66
2023/12/21 02:53:29;;;;;;;7.80;1.52;;;;;;;3.89;93.00;100307.09;5026420;28;20415;-66
2023/12/21 02:55:54;;;;;;;5.20;1.85;;;;;;;3.90;92.47;100301.00;5026813;28;20040;-66
2023/12/21 02:58:19;;;;;;;3.85;1.42;;;;;;;3.94;92.05;100302.44;5027105;28;20039;-66
2023/12/21 03:00:45;;;;;;;4.40;1.65;;;;;;;4.11;91.49;100299.53;5028374;28;20040;-66
2023/12/21 03:03:10;;;;;;;2.90;1.27;;;;;;;4.17;90.64;100296.50;5027007;28;20408;-66
2023/12/21 03:05:36;;;;;;;3.55;1.25;;;;;;;4.52;87.97;100290.59;5026407;28;20427;-66
2023/12/21 03:08:02;;;;;;;5.28;1.42;;;;;;;4.57;88.09;100286.75;5024685;28;20404;-66
2023/12/21 03:10:28;;;;;;;3.50;1.23;;;;;;;4.67;86.40;100281.75;5025205;28;20040;-66
2023/12/21 03:12:53;;;;;;;3.30;1.75;;;;;;;4.81;85.56;100278.97;5024525;28;20025;-66
2023/12/21 03:15:19;;;;;;;4.22;1.52;;;;;;;4.60;87.63;100286.53;5022353;28;20111;-66
2023/12/21 03:17:45;;;;;;;4.13;1.83;;;;;;;4.38;88.72;100285.59;5024078;28;20037;-66
2023/12/21 03:20:11;;;;;;;3.58;1.10;;;;;;;4.08;89.57;100289.41;5027024;28;20049;-66
2023/12/21 03:22:36;;;;;;;3.60;1.45;;;;;;;4.02;89.75;100286.44;5027901;28;20053;-66
2023/12/21 03:25:02;;;;;;;4.25;1.23;;;;;;;4.04;89.14;100294.91;5027145;28;20124;-66
2023/12/21 03:27:27;;;;;;;3.15;1.33;;;;;;;4.03;89.92;100300.97;5027960;28;20034;-66
2023/12/21 03:29:52;;;;;;;5.03;1.88;;;;;;;3.79;91.02;100306.06;5020940;28;20527;-66
2023/12/21 03:32:18;;;;;;;2.38;1.05;;;;;;;3.50;91.69;100301.16;5027197;28;20025;-66
2023/12/21 03:34:43;;;;;;;4.85;1.55;;;;;;;3.30;93.47;100301.69;5032005;28;20033;-66
2023/12/21 03:37:09;;;;;;;5.32;1.08;;;;;;;3.09;94.29;100308.25;5030156;28;20041;-66
2023/12/21 03:39:34;;;;;;;5.40;1.40;;;;;;;2.87;95.53;100298.50;5029649;28;20044;-66
2023/12/21 03:42:01;;;;;;;4.63;1.17;;;;;;;2.70;96.89;100299.63;5028961;28;20033;-66
2023/12/21 03:44:27;;;;;;;5.25;1.27;;;;;;;2.52;98.12;100298.19;5030575;28;20026;-66
2023/12/21 03:46:52;;;;;;;3.70;1.02;;;;;;;2.41;98.94;100298.06;5030587;28;20038;-66
2023/12/21 03:49:18;;;;;;;5.13;1.17;;;;;;;2.43;99.79;100303.94;5029278;28;20521;-66
2023/12/21 03:51:43;;;;;;;3.80;1.20;;;;;;;2.38;99.82;100326.53;5030054;28;20039;-66
2023/12/21 03:54:09;;;;;;;5.50;1.90;;;;;;;3.31;96.25;100316.19;5029948;28;20044;-66
2023/12/21 03:56:38;;;;;;;5.75;1.20;;;;;;;3.25;94.36;100307.13;5028798;28;20057;-66
2023/12/21 03:59:03;;;;;;;3.20;1.50;;;;;;;3.20;94.93;100310.94;5030048;28;20064;-66
2023/12/21 04:01:31;;;;;;;3.90;1.77;;;;;;;3.61;93.34;100303.84;5030209;28;20135;-66
2023/12/21 04:03:57;;;;;;;4.72;1.75;;;;;;;4.13;89.12;100315.72;5029598;28;20037;-66
2023/12/21 04:06:23;;;;;;;3.45;1.50;;;;;;;4.13;89.05;100305.41;5029954;28;20087;-66
2023/12/21 04:08:48;;;;;;;6.03;1.90;;;;;;;3.73;90.84;100294.44;5028284;28;20032;-66
2023/12/21 04:11:14;;;;;;;4.47;1.50;;;;;;;3.39;92.20;100289.91;5030156;28;20523;-66
2023/12/21 04:13:39;;;;;;;4.18;1.15;;;;;;;3.15;93.94;100298.38;5029391;28;20040;-66
2023/12/21 04:16:08;;;;;;;6.03;2.22;;;;;;;3.77;91.83;100305.38;5024350;28;20021;-66
2023/12/21 04:18:33;;;;;;;5.28;2.17;;;;;;;4.38;88.76;100295.91;5025934;28;20118;-66
2023/12/21 04:20:59;;;;;;;3.90;2.33;;;;;;;4.76;85.91;100290.56;5027194;28;20125;-66
2023/12/21 04:23:24;;;;;;;7.35;1.63;;;;;;;5.24;83.31;100291.28;5027442;28;20033;-66
2023/12/21 04:25:50;;;;;;;6.20;2.05;;;;;;;4.94;85.16;100297.81;5027350;28;20476;-66
2023/12/21 04:28:16;;;;;;;6.47;2.45;;;;;;;4.70;86.20;100303.94;5031253;28;20056;-66
2023/12/21 04:30:41;;;;;;;7.10;2.60;;;;;;;4.45;87.36;100305.69;5029334;28;20033;-66
2023/12/21 04:33:11;;;;;;;4.40;2.15;;;;;;;4.42;88.32;100300.75;5029786;28;20040;-66
2023/12/21 04:35:36;;;;;;;4.65;2.17;;;;;;;4.41;87.68;100299.09;5026581;28;20030;-66
2023/12/21 04:38:03;;;;;;;7.43;3.13;;;;;;;4.93;83.85;100291.00;5030943;28;20439;-66
2023/12/21 04:40:28;;;;;;;5.22;2.17;;;;;;;5.13;83.43;100286.13;5027153;28;20032;-66
2023/12/21 04:42:55;;;;;;;5.13;2.25;;;;;;;5.16;83.14;100280.72;5031723;28;20392;-66
2023/12/21 04:45:23;;;;;;;7.78;2.30;;;;;;;5.40;81.57;100270.31;5025062;28;20108;-66
2023/12/21 04:47:49;;;;;;;6.35;1.92;;;;;;;5.58;80.40;100268.91;5027815;28;20033;-66
2023/12/21 04:50:14;;;;;;;5.35;2.20;;;;;;;5.79;79.47;100269.81;5034660;28;20372;-66
2023/12/21 04:52:40;;;;;;;5.13;2.22;;;;;;;6.00;78.52;100244.09;5028822;28;20032;-66
2023/12/21 04:55:05;;;;;;;5.68;2.00;;;;;;;5.99;77.98;100248.44;5026508;28;20036;-66
2023/12/21 04:57:31;;;;;;;6.53;2.50;;;;;;;5.97;77.86;100260.69;5030855;28;20026;-66
2023/12/21 04:59:56;;;;;;;6.00;2.78;;;;;;;5.92;78.05;100267.16;5031506;28;20353;-66
2023/12/21 05:02:22;;;;;;;4.32;2.05;;;;;;;5.79;78.63;100272.41;5029612;28;20025;-66
2023/12/21 05:04:47;;;;;;;5.13;2.40;;;;;;;5.56;79.12;100279.38;5031345;28;20120;-66
2023/12/21 05:07:13;;;;;;;4.85;1.95;;;;;;;5.57;79.83;100275.03;5030226;28;20044;-66
2023/12/21 05:09:38;;;;;;;6.32;2.53;;;;;;;5.62;79.69;100281.47;5026923;28;20054;-66
2023/12/21 05:12:04;;;;;;;4.22;1.73;;;;;;;5.55;79.68;100277.72;5027233;28;20111;-66
2023/12/21 05:14:29;;;;;;;7.20;3.08;;;;;;;5.41;79.79;100283.09;5028043;28;20088;-66
2023/12/21 05:16:55;;;;;;;13.70;2.75;;;;;;;5.24;80.73;100279.19;5026226;28;20037;-66
2023/12/21 05:19:20;;;;;;;6.63;2.60;;;;;;;5.16;82.37;100257.50;5028175;28;20505;-66
2023/12/21 05:21:46;;;;;;;6.70;2.70;;;;;;;5.13;81.29;100252.56;5025673;28;20542;-66
2023/12/21 05:24:11;;;;;;;7.28;2.47;;;;;;;5.19;80.71;100252.09;5028945;28;20087;-66
2023/12/21 05:26:36;;;;;;;7.38;3.08;;;;;;;5.13;81.61;100258.53;5026699;28;20049;-66
2023/12/21 05:29:02;;;;;;;6.00;2.47;;;;;;;5.16;81.47;100255.72;5029151;28;20137;-66
2023/12/21 05:31:27;;;;;;;4.88;2.42;;;;;;;5.37;79.66;100242.09;5028235;28;20022;-66
2023/12/21 05:33:53;;;;;;;5.40;2.70;;;;;;;5.41;80.45;100230.59;5021477;28;20041;-66
2023/12/21 05:36:23;;;;;;;6.18;2.22;;;;;;;4.95;81.92;100219.41;5018038;28;20041;-66
2023/12/21 05:38:49;;;;;;;6.18;2.78;;;;;;;4.49;83.09;100221.16;5019302;28;20041;-66
2023/12/21 05:41:15;;;;;;;5.13;2.25;;;;;;;4.17;84.22;100236.38;5018912;28;20135;-66
2023/12/21 05:43:41;;;;;;;5.82;2.63;;;;;;;4.05;84.99;100235.50;5019163;28;20083;-66
2023/12/21 05:46:06;;;;;;;4.32;1.98;;;;;;;3.87;86.57;100239.34;5018014;28;20033;-66
2023/12/21 05:48:33;;;;;;;4.47;2.08;;;;;;;3.59;86.67;100243.84;5018782;28;20044;-66
2023/12/21 05:50:58;;;;;;;3.80;1.63;;;;;;;3.52;88.29;100255.50;5019588;28;20033;-66
2023/12/21 05:53:24;;;;;;;9.88;2.65;;;;;;;3.73;87.15;100255.78;5018825;28;20033;-66
2023/12/21 05:55:49;;;;;;;4.78;1.63;;;;;;;4.15;85.77;100254.53;5017755;28;20885;-66
2023/12/21 05:58:15;;;;;;;7.32;2.13;;;;;;;4.43;83.99;100257.72;5019171;28;20087;-66
2023/12/21 06:00:40;;;;;;;7.88;2.95;;;;;;;4.40;83.66;100268.25;5018777;28;20022;-66
2023/12/21 06:03:06;;;;;;;5.68;2.20;;;;;;;4.29;84.87;100259.53;5019200;28;20100;-66
2023/12/21 06:05:31;;;;;;;6.78;2.78;;;;;;;4.12;85.96;100271.97;5017358;28;20030;-66
2023/12/21 06:07:57;;;;;;;8.15;2.60;;;;;;;3.91;86.49;100269.13;5019903;28;20123;-66
2023/12/21 06:10:23;;;;;;;3.80;2.03;;;;;;;4.13;85.59;100255.59;5017627;28;20057;-66
2023/12/21 06:12:48;;;;;;;5.25;2.08;;;;;;;4.32;84.69;100261.88;5018502;28;20030;-66
2023/12/21 06:15:14;;;;;;;6.28;2.15;;;;;;;4.55;83.22;100272.31;5019101;28;20029;-66
2023/12/21 06:17:39;;;;;;;6.53;2.65;;;;;;;4.58;82.86;100272.09;5018901;28;20041;-66
2023/12/21 06:20:06;;;;;;;6.75;2.80;;;;;;;4.45;84.44;100269.56;5018208;28;20111;-66
2023/12/21 06:22:31;;;;;;;6.07;2.65;;;;;;;4.42;84.48;100264.63;5016722;28;20037;-66
2023/12/21 06:24:57;;;;;;;5.65;2.58;;;;;;;4.40;84.06;100268.25;5018224;28;20056;-66
2023/12/21 06:27:22;;;;;;;6.47;2.08;;;;;;;4.49;84.03;100267.59;5019291;28;20041;-66
2023/12/21 06:29:48;;;;;;;5.03;2.63;;;;;;;4.47;83.67;100279.78;5019058;28;20033;-66
2023/12/21 06:32:13;;;;;;;8.45;2.80;;;;;;;4.28;84.71;100273.34;5023911;28;20033;-66
2023/12/21 06:34:39;;;;;;;5.05;2.58;;;;;;;4.18;84.79;100280.13;5018121;28;20029;-66
2023/12/21 06:37:04;;;;;;;5.40;2.28;;;;;;;4.34;83.74;100275.50;5019613;28;20034;-67
2023/12/21 06:39:34;;;;;;;6.97;2.58;;;;;;;4.34;84.32;100275.50;5017967;28;20025;-67
2023/12/21 06:42:00;;;;;;;7.70;2.83;;;;;;;4.31;84.52;100280.88;5020418;28;20037;-66
2023/12/21 06:44:26;;;;;;;8.10;2.92;;;;;;;4.27;84.09;100287.19;5019001;28;20037;-67
2023/12/21 06:46:52;;;;;;;6.28;2.70;;;;;;;4.20;84.37;100267.94;5020079;28;20025;-67
2023/12/21 06:49:17;;;;;;;9.52;3.00;;;;;;;4.21;83.91;100254.13;5019307;28;20033;-67
2023/12/21 06:51:44;;;;;;;5.13;2.33;;;;;;;4.24;83.71;100242.75;5023995;28;20504;-67
2023/12/21 06:54:11;;;;;;;6.07;2.45;;;;;;;4.28;83.49;100242.41;5016694;28;20117;-67
2023/12/21 06:56:37;;;;;;;7.80;3.13;;;;;;;4.21;84.61;100242.97;5018220;28;20037;-67
2023/12/21 06:59:04;;;;;;;5.78;2.28;;;;;;;4.16;85.01;100240.72;5018417;28;20481;-67
2023/12/21 07:01:29;;;;;;;7.05;2.10;;;;;;;4.10;85.38;100237.75;5017597;28;20501;-67
2023/12/21 07:03:55;;;;;;;6.80;2.60;;;;;;;3.88;86.27;100230.69;5018244;28;20128;-67
2023/12/21 07:06:21;;;;;;;4.90;1.60;;;;;;;3.57;87.36;100232.84;5016415;28;20080;-67
2023/12/21 07:08:47;;;;;;;5.68;2.45;;;;;;;3.44;87.63;100232.03;5019619;28;20034;-67
2023/12/21 07:11:12;;;;;;;9.05;2.70;;;;;;;3.66;87.28;100231.38;5018338;28;20037;-67
2023/12/21 07:13:38;;;;;;;11.40;2.30;;;;;;;3.91;86.46;100238.22;5018355;28;20041;-67
2023/12/21 07:16:04;;;;;;;4.07;1.73;;;;;;;3.98;86.53;100244.59;5023485;28;20049;-67
2023/12/21 07:18:30;;;;;;;6.85;2.45;;;;;;;4.03;85.51;100252.00;5024295;28;20492;-66
2023/12/21 07:20:55;;;;;;;6.60;2.30;;;;;;;4.30;84.29;100243.13;5026596;28;20065;-66
2023/12/21 07:23:21;;;;;;;7.53;2.97;;;;;;;4.39;83.92;100251.13;5026260;28;20064;-67
2023/12/21 07:25:47;;;;;;;11.98;2.78;;;;;;;4.31;83.93;100255.06;5017716;28;20047;-66
2023/12/21 07:28:15;;;;;;;7.63;2.30;;;;;;;4.24;84.20;100255.66;5019672;28;20033;-66
2023/12/21 07:30:40;;;;;;;5.88;2.67;;;;;;;4.14;84.70;100270.13;5016425;28;20371;-66
2023/12/21 07:33:06;;;;;;;7.47;2.05;;;;;;;4.07;85.14;100269.72;5018029;28;20076;-66
2023/12/21 07:35:31;;;;;;;7.45;2.38;;;;;;;4.07;85.26;100266.31;5018033;28;20029;-66
2023/12/21 07:37:57;;;;;;;6.85;2.28;;;;;;;4.12;84.50;100267.66;5017862;28;20033;-66
2023/12/21 07:40:22;;;;;;;5.43;2.63;;;;;;;4.18;84.67;100266.41;5018563;28;20044;-66
2023/12/21 07:42:47;;;;;;;5.00;1.73;;;;;;;4.26;84.37;100262.31;5028087;28;20025;-66
2023/12/21 07:45:13;;;;;;;8.30;2.45;;;;;;;4.36;83.86;100265.06;5025054;28;20385;-66
2023/12/21 07:47:38;;;;;;;8.48;2.40;;;;;;;4.41;83.38;100260.41;5019592;28;20387;-66
2023/12/21 07:50:04;;;;;;;5.45;2.00;;;;;;;4.50;83.43;100248.59;5024175;28;20477;-66
2023/12/21 07:52:30;;;;;;;6.47;2.45;;;;;;;4.55;82.63;100244.75;5021855;28;20143;-66
2023/12/21 07:54:55;;;;;;;5.72;2.65;;;;;;;4.68;82.17;100247.28;5028039;28;20033;-66
2023/12/21 07:57:21;;;;;;;4.75;1.92;;;;;;;4.66;82.41;100244.81;5019849;28;20029;-66
2023/12/21 07:59:46;;;;;;;5.30;2.25;;;;;;;4.74;81.57;100240.81;5023864;28;20069;-67
2023/12/21 08:02:12;;;;;;;5.60;2.45;;;;;;;4.76;82.28;100241.53;5026214;28;20029;-66
2023/12/21 08:04:37;;;;;;;5.50;2.58;;;;;;;4.74;81.90;100233.91;5019641;28;20501;-66
2023/12/21 08:07:03;;;;;;;7.00;2.67;;;;;;;4.74;81.72;100239.06;5025305;28;20032;-65
2023/12/21 08:09:28;;;;;;;5.18;1.98;;;;;;;4.79;81.26;100226.63;5028237;28;20545;-67
2023/12/21 08:11:53;;;;;;;4.90;2.38;;;;;;;4.80;81.54;100220.53;5024411;28;20113;-67
2023/12/21 08:14:20;;;;;;;5.78;1.88;;;;;;;4.78;81.95;100227.56;5020752;28;20045;-68
2023/12/21 08:16:45;;;;;;;5.80;2.80;;;;;;;4.76;82.13;100234.59;5020067;28;20106;-67
2023/12/21 08:19:11;;;;;;;7.45;2.25;;;;;;;4.72;82.60;100243.53;5032105;28;20037;-67
2023/12/21 08:21:36;;;;;;;6.95;2.28;;;;;;;4.83;81.01;100253.06;5029003;28;20032;-67
2023/12/21 08:24:03;;;;;;;6.60;2.20;;;;;;;4.89;81.75;100250.03;5028202;28;20104;-67
2023/12/21 08:26:29;;;;;;;7.03;2.40;;;;;;;4.94;81.33;100264.25;5028171;28;20046;-67
2023/12/21 08:28:54;;;;;;;6.22;2.50;;;;;;;5.00;80.87;100258.63;5023063;28;20051;-67
2023/12/21 08:31:24;;;;;;;8.32;3.20;;;;;;;5.12;79.67;100256.91;5029581;28;20033;-67
2023/12/21 08:33:50;;;;;;;4.88;1.90;;;;;;;5.17;80.17;100253.97;5023978;28;20064;-67
2023/12/21 08:36:17;;;;;;;5.95;2.45;;;;;;;5.21;80.23;100247.59;5030799;28;20029;-67
2023/12/21 08:38:42;;;;;;;6.45;2.10;;;;;;;5.28;79.96;100241.88;5024433;28;20028;-67
2023/12/21 08:41:07;;;;;;;7.00;2.75;;;;;;;5.38;79.31;100236.81;5034023;28;20033;-67
2023/12/21 08:43:34;;;;;;;7.15;2.80;;;;;;;5.42;79.43;100238.25;5031734;28;20041;-66
2023/12/21 08:46:00;;;;;;;10.68;3.20;;;;;;;5.49;79.51;100241.19;5027441;28;20361;-66
2023/12/21 08:48:26;;;;;;;5.03;2.15;;;;;;;5.66;78.37;100241.53;5028391;28;20041;-66
2023/12/21 08:50:52;;;;;;;4.90;2.40;;;;;;;5.79;78.52;100232.81;5031912;28;20120;-66
2023/12/21 08:53:17;;;;;;;7.70;2.38;;;;;;;5.91;77.47;100237.06;5028574;28;20122;-66
2023/12/21 08:55:42;;;;;;;8.32;3.05;;;;;;;5.95;78.21;100228.94;5027782;28;20029;-66
2023/12/21 08:58:08;;;;;;;4.78;1.60;;;;;;;6.03;78.40;100220.59;5029322;28;20641;-67
2023/12/21 09:00:33;;;;;;;3.95;1.42;;;;;;;6.16;78.07;100221.22;5019211;28;20033;-66
2023/12/21 09:02:59;;;;;;;8.63;3.08;;;;;;;6.19;77.44;100226.16;5025247;28;20022;-66
2023/12/21 09:05:24;;;;;;;6.03;3.08;;;;;;;6.16;77.15;100229.00;5019626;28;20496;-67
2023/12/21 09:07:50;;;;;;;8.93;2.70;;;;;;;6.09;77.32;100229.63;5016771;28;20508;-67
2023/12/21 09:10:15;;;;;;;5.10;2.47;;;;;;;6.03;77.56;100218.00;5020596;28;20120;-66
2023/12/21 09:12:41;;;;;;;6.68;2.60;;;;;;;5.94;78.18;100216.13;5017474;28;20485;-67
2023/12/21 09:15:08;;;;;;;5.35;2.30;;;;;;;5.90;77.79;100217.31;5021975;28;20032;-66
2023/12/21 09:17:33;;;;;;;5.45;2.55;;;;;;;5.91;77.68;100221.56;5016371;28;20026;-67
2023/12/21 09:19:59;;;;;;;5.03;2.00;;;;;;;5.87;77.54;100222.69;5021200;28;20063;-67
2023/12/21 09:22:25;;;;;;;7.82;3.10;;;;;;;5.76;78.15;100215.78;5017707;28;20051;-67
2023/12/21 09:24:50;;;;;;;5.47;2.50;;;;;;;5.74;78.65;100219.41;5025931;28;20033;-67
2023/12/21 09:27:15;;;;;;;6.90;2.67;;;;;;;5.73;78.44;100228.13;5021464;28;20033;-67
2023/12/21 09:29:42;;;;;;;5.32;2.42;;;;;;;5.76;78.76;100220.94;5018137;28;20039;-66
2023/12/21 09:32:08;;;;;;;4.40;2.00;;;;;;;5.80;78.03;100237.88;5019626;28;20026;-67
2023/12/21 09:34:34;;;;;;;5.15;1.85;;;;;;;5.85;78.04;100240.09;5019045;28;20393;-67
2023/12/21 09:36:59;;;;;;;5.82;1.67;;;;;;;5.88;78.31;100230.34;5019253;28;20033;-67
2023/12/21 09:39:25;;;;;;;4.90;2.13;;;;;;;5.95;78.21;100225.53;5019991;28;20037;-67
2023/12/21 09:41:50;;;;;;;6.68;2.92;;;;;;;6.10;77.77;100211.41;5018385;28;20063;-67
2023/12/21 09:44:20;;;;;;;4.95;2.60;;;;;;;6.22;77.30;100207.81;5019569;28;20463;-67
2023/12/21 09:46:48;;;;;;;7.30;2.33;;;;;;;6.33;76.72;100189.66;5026970;28;20460;-66
2023/12/21 09:49:16;;;;;;;6.93;2.80;;;;;;;6.45;76.96;100195.63;5027128;28;20033;-67
2023/12/21 09:51:46;;;;;;;6.55;2.85;;;;;;;6.62;75.56;100187.28;5028622;28;20358;-67
2023/12/21 09:54:14;;;;;;;6.30;2.45;;;;;;;6.68;76.60;100180.78;5024095;28;20120;-67
2023/12/21 09:56:40;;;;;;;9.02;2.88;;;;;;;6.74;75.99;100167.31;5019749;28;20040;-67
2023/12/21 09:59:07;;;;;;;5.70;2.78;;;;;;;6.80;75.67;100156.47;5027628;28;20481;-67
2023/12/21 10:01:33;;;;;;;5.38;2.70;;;;;;;6.87;74.99;100149.84;5021828;28;20042;-67
2023/12/21 10:03:59;;;;;;;5.32;1.98;;;;;;;7.01;76.27;100137.50;5029077;28;20041;-67
2023/12/21 10:06:24;;;;;;;4.55;2.33;;;;;;;7.11;76.66;100131.38;5023615;28;20072;-67
2023/12/21 10:08:52;;;;;;;9.10;2.58;;;;;;;7.20;76.00;100132.38;5026945;28;20112;-67
2023/12/21 10:11:19;;;;;;;7.03;2.58;;;;;;;7.28;75.35;100117.81;5027071;28;20543;-67
2023/12/21 10:13:48;;;;;;;4.93;2.08;;;;;;;7.28;74.15;100115.22;5027141;28;20033;-67
2023/12/21 10:16:14;;;;;;;6.65;2.78;;;;;;;7.23;75.20;100119.97;5027711;28;20075;-67
2023/12/21 10:18:41;;;;;;;5.88;2.28;;;;;;;7.27;74.60;100112.75;5029056;28;20063;-67
2023/12/21 10:21:08;;;;;;;9.70;2.55;;;;;;;7.36;74.79;100100.78;5027304;28;20128;-67
2023/12/21 10:23:34;;;;;;;7.93;2.38;;;;;;;7.47;73.97;100098.91;5028758;28;20033;-67
2023/12/21 10:26:00;;;;;;;5.45;2.67;;;;;;;7.53;73.76;100108.75;5026175;28;20037;-67
2023/12/21 10:28:25;;;;;;;9.32;2.15;;;;;;;7.50;73.93;100103.00;5028951;28;20043;-67
2023/12/21 10:30:58;;;;;;;5.40;2.15;;;;;;;7.51;73.41;100094.28;5028933;28;20029;-67
2023/12/21 10:33:27;;;;;;;5.10;2.05;;;;;;;7.57;73.40;100084.16;5025530;28;20029;-67
2023/12/21 10:35:52;;;;;;;7.53;1.90;;;;;;;7.49;73.04;100076.28;5028080;28;20041;-67
2023/12/21 10:38:21;;;;;;;11.60;2.50;;;;;;;7.52;73.21;100060.44;5029656;28;20029;-67
2023/12/21 10:40:49;;;;;;;4.68;2.05;;;;;;;7.61;73.45;100069.16;5026773;28;20109;-67
2023/12/21 10:43:16;;;;;;;8.15;2.72;;;;;;;7.70;72.87;100073.53;5026595;28;20041;-67
2023/12/21 10:45:47;;;;;;;6.57;2.92;;;;;;;7.80;72.49;100066.59;5028114;28;20417;-67
2023/12/21 10:48:15;;;;;;;6.65;3.15;;;;;;;7.83;73.26;100060.31;5029438;28;20021;-67
2023/12/21 10:50:45;;;;;;;6.35;2.72;;;;;;;7.78;72.57;100050.34;5028319;28;20029;-67
2023/12/21 10:53:12;;;;;;;4.78;2.38;;;;;;;7.75;74.10;100049.81;5028702;28;20186;-67
2023/12/21 10:55:39;;;;;;;8.45;3.03;;;;;;;7.78;73.45;100052.13;5027271;28;20489;-67
2023/12/21 10:58:08;;;;;;;10.60;2.80;;;;;;;7.85;73.77;100051.44;5029355;28;20113;-67
2023/12/21 11:00:34;;;;;;;4.75;1.90;;;;;;;7.92;73.20;100047.34;5027850;28;20032;-66
2023/12/21 11:03:02;;;;;;;7.57;2.90;;;;;;;7.99;71.87;100042.44;5029280;28;20037;-67
2023/12/21 11:05:31;;;;;;;6.88;2.63;;;;;;;8.10;72.49;100041.44;5026588;28;20040;-67
2023/12/21 11:07:58;;;;;;;7.97;2.33;;;;;;;8.10;72.86;100026.69;5029102;28;20536;-66
2023/12/21 11:10:24;;;;;;;7.80;2.97;;;;;;;8.15;72.98;100013.31;5028536;28;20108;-67
2023/12/21 11:12:50;;;;;;;8.98;2.00;;;;;;;8.20;70.94;100009.34;5029313;28;20120;-66
2023/12/21 11:15:20;;;;;;;10.07;2.65;;;;;;;8.27;71.96;100013.00;5029417;28;20079;-66
2023/12/21 11:18:08;;;;;;;4.10;1.77;;;;;;;8.25;72.86;100004.53;5029520;28;20079;-66
2023/12/21 11:20:46;;;;;;;6.25;2.70;;;;;;;8.32;72.12;99994.41;5026653;28;20038;-66
2023/12/21 11:23:12;;;;;;;4.25;1.65;;;;;;;8.41;72.68;99990.19;5028649;28;20045;-67
2023/12/21 11:25:37;;;;;;;3.97;1.42;;;;;;;8.37;71.96;99988.84;5028974;28;23647;-67